sensor_id;sensor_type;location;lat;lon;timestamp;P1;durP1;ratioP1;P2;durP2;ratioP2
22282;SDS011;11310;51.528;21.204;2024-02-26T00:00:25;16.40;;;6.93;;
22282;SDS011;11310;51.528;21.204;2024-02-26T00:02:54;13.98;;;6.53;;
22282;SDS011;11310;51.528;21.204;2024-02-26T00:05:23;14.32;;;6.28;;
22282;SDS011;11310;51.528;21.204;2024-02-26T00:07:56;15.68;;;5.93;;
22282;SDS011;11310;51.528;21.204;2024-02-26T00:10:26;17.98;;;6.70;;
22282;SDS011;11310;51.528;21.204;2024-02-26T00:12:57;13.07;;;6.43;;
22282;SDS011;11310;51.528;21.204;2024-02-26T00:15:25;17.85;;;6.60;;
22282;SDS011;11310;51.528;21.204;2024-02-26T00:17:55;17.35;;;7.72;;
22282;SDS011;11310;51.528;21.204;2024-02-26T00:20:24;15.52;;;6.60;;
22282;SDS011;11310;51.528;21.204;2024-02-26T00:22:53;14.50;;;6.75;;
22282;SDS011;11310;51.528;21.204;2024-02-26T00:25:23;15.02;;;7.07;;
22282;SDS011;11310;51.528;21.204;2024-02-26T00:27:51;15.25;;;8.27;;
22282;SDS011;11310;51.528;21.204;2024-02-26T00:30:20;14.38;;;6.55;;
22282;SDS011;11310;51.528;21.204;2024-02-26T00:32:49;27.02;;;12.50;;
22282;SDS011;11310;51.528;21.204;2024-02-26T00:35:18;16.35;;;7.20;;
22282;SDS011;11310;51.528;21.204;2024-02-26T00:37:49;16.40;;;6.90;;
22282;SDS011;11310;51.528;21.204;2024-02-26T00:40:17;12.23;;;6.53;;
22282;SDS011;11310;51.528;21.204;2024-02-26T00:42:47;18.65;;;7.40;;
22282;SDS011;11310;51.528;21.204;2024-02-26T00:45:16;16.90;;;6.97;;
22282;SDS011;11310;51.528;21.204;2024-02-26T00:47:45;20.35;;;9.00;;
22282;SDS011;11310;51.528;21.204;2024-02-26T00:50:15;18.88;;;10.10;;
22282;SDS011;11310;51.528;21.204;2024-02-26T00:52:45;18.80;;;9.77;;
22282;SDS011;11310;51.528;21.204;2024-02-26T00:55:13;18.30;;;10.02;;
22282;SDS011;11310;51.528;21.204;2024-02-26T00:57:42;18.38;;;9.57;;
22282;SDS011;11310;51.528;21.204;2024-02-26T01:00:13;20.42;;;13.05;;
22282;SDS011;11310;51.528;21.204;2024-02-26T01:02:43;19.13;;;11.80;;
22282;SDS011;11310;51.528;21.204;2024-02-26T01:05:13;16.40;;;8.00;;
22282;SDS011;11310;51.528;21.204;2024-02-26T01:07:43;15.80;;;9.30;;
22282;SDS011;11310;51.528;21.204;2024-02-26T01:10:15;17.55;;;9.05;;
22282;SDS011;11310;51.528;21.204;2024-02-26T01:12:46;18.38;;;10.45;;
22282;SDS011;11310;51.528;21.204;2024-02-26T01:15:17;19.13;;;11.50;;
22282;SDS011;11310;51.528;21.204;2024-02-26T01:17:50;25.95;;;14.82;;
22282;SDS011;11310;51.528;21.204;2024-02-26T01:20:19;17.17;;;8.77;;
22282;SDS011;11310;51.528;21.204;2024-02-26T01:22:49;22.23;;;12.43;;
22282;SDS011;11310;51.528;21.204;2024-02-26T01:25:17;14.93;;;7.55;;
22282;SDS011;11310;51.528;21.204;2024-02-26T01:27:46;19.10;;;10.27;;
22282;SDS011;11310;51.528;21.204;2024-02-26T01:30:16;14.85;;;7.47;;
22282;SDS011;11310;51.528;21.204;2024-02-26T01:32:45;16.88;;;7.65;;
22282;SDS011;11310;51.528;21.204;2024-02-26T01:35:16;13.90;;;6.67;;
22282;SDS011;11310;51.528;21.204;2024-02-26T01:37:46;17.45;;;8.38;;
22282;SDS011;11310;51.528;21.204;2024-02-26T01:40:15;16.85;;;7.85;;
22282;SDS011;11310;51.528;21.204;2024-02-26T01:42:47;20.40;;;8.60;;
22282;SDS011;11310;51.528;21.204;2024-02-26T01:45:17;16.98;;;8.23;;
22282;SDS011;11310;51.528;21.204;2024-02-26T01:47:51;19.95;;;9.27;;
22282;SDS011;11310;51.528;21.204;2024-02-26T01:50:21;15.13;;;8.68;;
22282;SDS011;11310;51.528;21.204;2024-02-26T01:52:53;34.60;;;13.30;;
22282;SDS011;11310;51.528;21.204;2024-02-26T01:55:23;21.02;;;11.68;;
22282;SDS011;11310;51.528;21.204;2024-02-26T01:57:54;41.65;;;14.35;;
22282;SDS011;11310;51.528;21.204;2024-02-26T02:00:24;54.60;;;15.75;;
22282;SDS011;11310;51.528;21.204;2024-02-26T02:02:53;28.27;;;12.50;;
22282;SDS011;11310;51.528;21.204;2024-02-26T02:05:23;17.75;;;9.90;;
22282;SDS011;11310;51.528;21.204;2024-02-26T02:07:53;22.38;;;12.73;;
22282;SDS011;11310;51.528;21.204;2024-02-26T02:10:24;17.30;;;8.52;;
22282;SDS011;11310;51.528;21.204;2024-02-26T02:12:55;21.02;;;10.57;;
22282;SDS011;11310;51.528;21.204;2024-02-26T02:15:24;20.65;;;9.23;;
22282;SDS011;11310;51.528;21.204;2024-02-26T02:17:56;25.58;;;13.10;;
22282;SDS011;11310;51.528;21.204;2024-02-26T02:20:26;17.85;;;9.20;;
22282;SDS011;11310;51.528;21.204;2024-02-26T02:23:00;19.80;;;10.88;;
22282;SDS011;11310;51.528;21.204;2024-02-26T02:25:30;15.63;;;8.25;;
22282;SDS011;11310;51.528;21.204;2024-02-26T02:27:59;17.25;;;10.52;;
22282;SDS011;11310;51.528;21.204;2024-02-26T02:30:28;15.32;;;8.80;;
22282;SDS011;11310;51.528;21.204;2024-02-26T02:32:58;18.08;;;10.45;;
22282;SDS011;11310;51.528;21.204;2024-02-26T02:35:28;15.80;;;7.70;;
22282;SDS011;11310;51.528;21.204;2024-02-26T02:37:57;19.45;;;9.73;;
22282;SDS011;11310;51.528;21.204;2024-02-26T02:40:26;18.83;;;9.40;;
22282;SDS011;11310;51.528;21.204;2024-02-26T02:42:54;19.88;;;10.18;;
22282;SDS011;11310;51.528;21.204;2024-02-26T02:45:22;22.67;;;13.20;;
22282;SDS011;11310;51.528;21.204;2024-02-26T02:47:51;21.00;;;11.57;;
22282;SDS011;11310;51.528;21.204;2024-02-26T02:50:19;20.17;;;11.80;;
22282;SDS011;11310;51.528;21.204;2024-02-26T02:52:49;20.40;;;12.13;;
22282;SDS011;11310;51.528;21.204;2024-02-26T02:55:18;34.58;;;10.63;;
22282;SDS011;11310;51.528;21.204;2024-02-26T02:57:47;73.55;;;17.13;;
22282;SDS011;11310;51.528;21.204;2024-02-26T03:00:15;54.67;;;11.65;;
22282;SDS011;11310;51.528;21.204;2024-02-26T03:02:44;39.10;;;14.98;;
22282;SDS011;11310;51.528;21.204;2024-02-26T03:05:13;13.70;;;6.43;;
22282;SDS011;11310;51.528;21.204;2024-02-26T03:07:41;12.82;;;6.57;;
22282;SDS011;11310;51.528;21.204;2024-02-26T03:10:12;11.98;;;5.88;;
22282;SDS011;11310;51.528;21.204;2024-02-26T03:12:40;14.20;;;6.40;;
22282;SDS011;11310;51.528;21.204;2024-02-26T03:15:11;13.30;;;6.43;;
22282;SDS011;11310;51.528;21.204;2024-02-26T03:17:43;15.15;;;6.15;;
22282;SDS011;11310;51.528;21.204;2024-02-26T03:20:11;15.85;;;6.40;;
22282;SDS011;11310;51.528;21.204;2024-02-26T03:22:46;12.68;;;6.07;;
22282;SDS011;11310;51.528;21.204;2024-02-26T03:27:47;15.02;;;6.72;;
22282;SDS011;11310;51.528;21.204;2024-02-26T03:30:15;13.90;;;7.03;;
22282;SDS011;11310;51.528;21.204;2024-02-26T03:32:44;16.83;;;7.45;;
22282;SDS011;11310;51.528;21.204;2024-02-26T03:35:15;13.82;;;6.43;;
22282;SDS011;11310;51.528;21.204;2024-02-26T03:37:45;13.75;;;7.25;;
22282;SDS011;11310;51.528;21.204;2024-02-26T03:40:14;15.20;;;6.75;;
22282;SDS011;11310;51.528;21.204;2024-02-26T03:45:16;14.05;;;6.65;;
22282;SDS011;11310;51.528;21.204;2024-02-26T03:47:44;12.88;;;7.20;;
22282;SDS011;11310;51.528;21.204;2024-02-26T03:50:13;13.85;;;6.65;;
22282;SDS011;11310;51.528;21.204;2024-02-26T03:52:41;14.82;;;6.80;;
22282;SDS011;11310;51.528;21.204;2024-02-26T03:55:10;16.45;;;7.07;;
22282;SDS011;11310;51.528;21.204;2024-02-26T03:57:38;16.15;;;6.85;;
22282;SDS011;11310;51.528;21.204;2024-02-26T04:00:09;16.45;;;7.10;;
22282;SDS011;11310;51.528;21.204;2024-02-26T04:02:39;13.07;;;6.18;;
22282;SDS011;11310;51.528;21.204;2024-02-26T04:05:09;15.90;;;6.85;;
22282;SDS011;11310;51.528;21.204;2024-02-26T04:07:47;12.90;;;6.35;;
22282;SDS011;11310;51.528;21.204;2024-02-26T04:10:16;14.13;;;6.35;;
22282;SDS011;11310;51.528;21.204;2024-02-26T04:12:45;14.88;;;7.07;;
22282;SDS011;11310;51.528;21.204;2024-02-26T04:15:15;14.23;;;6.93;;
22282;SDS011;11310;51.528;21.204;2024-02-26T04:17:47;14.65;;;7.00;;
22282;SDS011;11310;51.528;21.204;2024-02-26T04:20:15;13.77;;;7.13;;
22282;SDS011;11310;51.528;21.204;2024-02-26T04:22:44;18.02;;;7.95;;
22282;SDS011;11310;51.528;21.204;2024-02-26T04:25:12;15.07;;;7.10;;
22282;SDS011;11310;51.528;21.204;2024-02-26T04:27:41;14.50;;;6.43;;
22282;SDS011;11310;51.528;21.204;2024-02-26T04:30:10;14.52;;;7.25;;
22282;SDS011;11310;51.528;21.204;2024-02-26T04:32:40;16.35;;;7.45;;
22282;SDS011;11310;51.528;21.204;2024-02-26T04:35:09;15.23;;;7.10;;
22282;SDS011;11310;51.528;21.204;2024-02-26T04:37:37;15.52;;;7.47;;
22282;SDS011;11310;51.528;21.204;2024-02-26T04:40:06;15.80;;;7.00;;
22282;SDS011;11310;51.528;21.204;2024-02-26T04:42:35;15.85;;;7.13;;
22282;SDS011;11310;51.528;21.204;2024-02-26T04:45:04;14.70;;;7.40;;
22282;SDS011;11310;51.528;21.204;2024-02-26T04:47:33;15.57;;;7.05;;
22282;SDS011;11310;51.528;21.204;2024-02-26T04:50:03;14.23;;;7.75;;
22282;SDS011;11310;51.528;21.204;2024-02-26T04:52:31;14.23;;;7.85;;
22282;SDS011;11310;51.528;21.204;2024-02-26T04:54:59;17.55;;;9.00;;
22282;SDS011;11310;51.528;21.204;2024-02-26T04:57:28;17.35;;;8.50;;
22282;SDS011;11310;51.528;21.204;2024-02-26T04:59:57;16.85;;;9.07;;
22282;SDS011;11310;51.528;21.204;2024-02-26T05:02:25;14.55;;;7.35;;
22282;SDS011;11310;51.528;21.204;2024-02-26T05:04:54;16.27;;;8.90;;
22282;SDS011;11310;51.528;21.204;2024-02-26T05:07:23;14.50;;;7.75;;
22282;SDS011;11310;51.528;21.204;2024-02-26T05:09:52;14.50;;;9.27;;
22282;SDS011;11310;51.528;21.204;2024-02-26T05:12:20;14.50;;;8.05;;
22282;SDS011;11310;51.528;21.204;2024-02-26T05:14:49;15.75;;;8.85;;
22282;SDS011;11310;51.528;21.204;2024-02-26T05:17:18;17.65;;;7.43;;
22282;SDS011;11310;51.528;21.204;2024-02-26T05:19:50;18.38;;;9.13;;
22282;SDS011;11310;51.528;21.204;2024-02-26T05:22:19;16.63;;;9.13;;
22282;SDS011;11310;51.528;21.204;2024-02-26T05:24:49;15.68;;;9.65;;
22282;SDS011;11310;51.528;21.204;2024-02-26T05:27:18;13.57;;;7.93;;
22282;SDS011;11310;51.528;21.204;2024-02-26T05:29:49;21.48;;;10.48;;
22282;SDS011;11310;51.528;21.204;2024-02-26T05:32:19;16.98;;;8.35;;
22282;SDS011;11310;51.528;21.204;2024-02-26T05:34:47;21.00;;;10.05;;
22282;SDS011;11310;51.528;21.204;2024-02-26T05:37:15;14.13;;;8.13;;
22282;SDS011;11310;51.528;21.204;2024-02-26T05:39:46;15.57;;;9.02;;
22282;SDS011;11310;51.528;21.204;2024-02-26T05:42:15;15.07;;;7.75;;
22282;SDS011;11310;51.528;21.204;2024-02-26T05:44:44;15.98;;;8.20;;
22282;SDS011;11310;51.528;21.204;2024-02-26T05:47:12;27.98;;;8.57;;
22282;SDS011;11310;51.528;21.204;2024-02-26T05:49:42;14.82;;;8.90;;
22282;SDS011;11310;51.528;21.204;2024-02-26T05:52:10;13.32;;;5.97;;
22282;SDS011;11310;51.528;21.204;2024-02-26T05:54:39;12.75;;;5.82;;
22282;SDS011;11310;51.528;21.204;2024-02-26T05:57:09;12.95;;;5.72;;
22282;SDS011;11310;51.528;21.204;2024-02-26T06:02:10;13.32;;;6.15;;
22282;SDS011;11310;51.528;21.204;2024-02-26T06:04:39;13.32;;;6.03;;
22282;SDS011;11310;51.528;21.204;2024-02-26T06:07:10;11.47;;;6.03;;
22282;SDS011;11310;51.528;21.204;2024-02-26T06:09:38;11.02;;;6.20;;
22282;SDS011;11310;51.528;21.204;2024-02-26T06:12:07;12.75;;;6.15;;
22282;SDS011;11310;51.528;21.204;2024-02-26T06:14:37;12.88;;;5.85;;
22282;SDS011;11310;51.528;21.204;2024-02-26T06:17:07;13.07;;;6.78;;
22282;SDS011;11310;51.528;21.204;2024-02-26T06:19:38;14.45;;;7.18;;
22282;SDS011;11310;51.528;21.204;2024-02-26T06:22:06;13.93;;;6.32;;
22282;SDS011;11310;51.528;21.204;2024-02-26T06:24:35;12.45;;;7.25;;
22282;SDS011;11310;51.528;21.204;2024-02-26T06:27:04;14.50;;;7.82;;
22282;SDS011;11310;51.528;21.204;2024-02-26T06:29:34;15.23;;;8.00;;
22282;SDS011;11310;51.528;21.204;2024-02-26T06:32:02;16.92;;;8.85;;
22282;SDS011;11310;51.528;21.204;2024-02-26T06:34:32;19.95;;;9.95;;
22282;SDS011;11310;51.528;21.204;2024-02-26T06:37:01;20.27;;;11.55;;
22282;SDS011;11310;51.528;21.204;2024-02-26T06:39:30;19.85;;;10.50;;
22282;SDS011;11310;51.528;21.204;2024-02-26T06:41:59;19.35;;;11.52;;
22282;SDS011;11310;51.528;21.204;2024-02-26T06:44:28;19.33;;;10.75;;
22282;SDS011;11310;51.528;21.204;2024-02-26T06:46:58;17.35;;;11.63;;
22282;SDS011;11310;51.528;21.204;2024-02-26T06:49:28;25.75;;;13.27;;
22282;SDS011;11310;51.528;21.204;2024-02-26T06:52:00;14.93;;;8.30;;
22282;SDS011;11310;51.528;21.204;2024-02-26T06:54:31;12.85;;;8.35;;
22282;SDS011;11310;51.528;21.204;2024-02-26T06:57:02;15.18;;;9.38;;
22282;SDS011;11310;51.528;21.204;2024-02-26T06:59:31;19.10;;;10.27;;
22282;SDS011;11310;51.528;21.204;2024-02-26T07:01:59;23.60;;;14.38;;
22282;SDS011;11310;51.528;21.204;2024-02-26T07:04:28;26.95;;;13.95;;
22282;SDS011;11310;51.528;21.204;2024-02-26T07:07:00;32.78;;;15.88;;
22282;SDS011;11310;51.528;21.204;2024-02-26T07:09:28;25.67;;;11.82;;
22282;SDS011;11310;51.528;21.204;2024-02-26T07:11:57;34.78;;;15.20;;
22282;SDS011;11310;51.528;21.204;2024-02-26T07:14:27;25.30;;;11.20;;
22282;SDS011;11310;51.528;21.204;2024-02-26T07:16:56;35.67;;;15.57;;
22282;SDS011;11310;51.528;21.204;2024-02-26T07:19:25;33.13;;;11.43;;
22282;SDS011;11310;51.528;21.204;2024-02-26T07:21:54;29.33;;;13.13;;
22282;SDS011;11310;51.528;21.204;2024-02-26T07:24:24;59.75;;;17.63;;
22282;SDS011;11310;51.528;21.204;2024-02-26T07:26:53;45.78;;;15.30;;
22282;SDS011;11310;51.528;21.204;2024-02-26T07:29:22;77.28;;;17.92;;
22282;SDS011;11310;51.528;21.204;2024-02-26T07:31:50;15.90;;;8.93;;
22282;SDS011;11310;51.528;21.204;2024-02-26T07:34:19;66.22;;;15.55;;
22282;SDS011;11310;51.528;21.204;2024-02-26T07:36:47;84.07;;;17.83;;
22282;SDS011;11310;51.528;21.204;2024-02-26T07:39:15;68.88;;;14.98;;
22282;SDS011;11310;51.528;21.204;2024-02-26T07:41:45;110.45;;;21.02;;
22282;SDS011;11310;51.528;21.204;2024-02-26T07:44:16;88.55;;;17.90;;
22282;SDS011;11310;51.528;21.204;2024-02-26T07:46:46;142.07;;;24.73;;
22282;SDS011;11310;51.528;21.204;2024-02-26T07:49:15;92.93;;;18.13;;
22282;SDS011;11310;51.528;21.204;2024-02-26T07:51:43;151.45;;;24.38;;
22282;SDS011;11310;51.528;21.204;2024-02-26T07:54:12;94.65;;;16.17;;
22282;SDS011;11310;51.528;21.204;2024-02-26T07:56:43;140.40;;;21.27;;
22282;SDS011;11310;51.528;21.204;2024-02-26T07:59:14;115.73;;;19.20;;
22282;SDS011;11310;51.528;21.204;2024-02-26T08:01:42;97.65;;;17.08;;
22282;SDS011;11310;51.528;21.204;2024-02-26T08:04:17;89.40;;;16.70;;
22282;SDS011;11310;51.528;21.204;2024-02-26T08:06:45;157.02;;;24.50;;
22282;SDS011;11310;51.528;21.204;2024-02-26T08:09:17;34.30;;;14.18;;
22282;SDS011;11310;51.528;21.204;2024-02-26T08:11:49;63.88;;;20.55;;
22282;SDS011;11310;51.528;21.204;2024-02-26T08:14:19;50.75;;;18.90;;
22282;SDS011;11310;51.528;21.204;2024-02-26T08:16:48;41.80;;;18.40;;
22282;SDS011;11310;51.528;21.204;2024-02-26T08:19:17;24.20;;;13.68;;
22282;SDS011;11310;51.528;21.204;2024-02-26T08:21:46;22.30;;;14.55;;
22282;SDS011;11310;51.528;21.204;2024-02-26T08:24:15;18.17;;;9.98;;
22282;SDS011;11310;51.528;21.204;2024-02-26T08:26:49;11.40;;;6.72;;
22282;SDS011;11310;51.528;21.204;2024-02-26T08:29:18;11.80;;;6.63;;
22282;SDS011;11310;51.528;21.204;2024-02-26T08:31:47;12.80;;;6.22;;
22282;SDS011;11310;51.528;21.204;2024-02-26T08:34:17;9.93;;;4.97;;
22282;SDS011;11310;51.528;21.204;2024-02-26T08:36:45;10.45;;;5.05;;
22282;SDS011;11310;51.528;21.204;2024-02-26T08:39:15;11.52;;;5.03;;
22282;SDS011;11310;51.528;21.204;2024-02-26T08:41:44;10.15;;;5.03;;
22282;SDS011;11310;51.528;21.204;2024-02-26T08:44:22;13.43;;;5.13;;
22282;SDS011;11310;51.528;21.204;2024-02-26T08:46:51;11.55;;;5.10;;
22282;SDS011;11310;51.528;21.204;2024-02-26T08:49:19;9.48;;;4.30;;
22282;SDS011;11310;51.528;21.204;2024-02-26T08:51:50;6.85;;;3.35;;
22282;SDS011;11310;51.528;21.204;2024-02-26T08:54:18;7.25;;;3.58;;
22282;SDS011;11310;51.528;21.204;2024-02-26T08:56:48;7.32;;;3.50;;
22282;SDS011;11310;51.528;21.204;2024-02-26T08:59:17;8.45;;;3.17;;
22282;SDS011;11310;51.528;21.204;2024-02-26T09:01:49;5.18;;;2.67;;
22282;SDS011;11310;51.528;21.204;2024-02-26T09:04:18;6.18;;;3.42;;
22282;SDS011;11310;51.528;21.204;2024-02-26T09:06:46;6.60;;;3.10;;
22282;SDS011;11310;51.528;21.204;2024-02-26T09:09:15;6.18;;;3.10;;
22282;SDS011;11310;51.528;21.204;2024-02-26T09:11:44;6.53;;;3.35;;
22282;SDS011;11310;51.528;21.204;2024-02-26T09:14:14;6.13;;;2.90;;
22282;SDS011;11310;51.528;21.204;2024-02-26T09:16:42;5.50;;;2.85;;
22282;SDS011;11310;51.528;21.204;2024-02-26T09:19:11;6.13;;;2.95;;
22282;SDS011;11310;51.528;21.204;2024-02-26T09:21:42;6.68;;;2.95;;
22282;SDS011;11310;51.528;21.204;2024-02-26T09:24:11;6.72;;;2.97;;
22282;SDS011;11310;51.528;21.204;2024-02-26T09:26:39;5.15;;;3.00;;
22282;SDS011;11310;51.528;21.204;2024-02-26T09:29:08;6.18;;;3.15;;
22282;SDS011;11310;51.528;21.204;2024-02-26T09:31:40;7.22;;;3.50;;
22282;SDS011;11310;51.528;21.204;2024-02-26T09:34:09;7.25;;;3.35;;
22282;SDS011;11310;51.528;21.204;2024-02-26T09:36:37;5.95;;;2.97;;
22282;SDS011;11310;51.528;21.204;2024-02-26T09:39:06;7.55;;;3.53;;
22282;SDS011;11310;51.528;21.204;2024-02-26T09:41:38;6.45;;;2.85;;
22282;SDS011;11310;51.528;21.204;2024-02-26T09:44:07;5.70;;;2.85;;
22282;SDS011;11310;51.528;21.204;2024-02-26T09:46:39;4.03;;;2.60;;
22282;SDS011;11310;51.528;21.204;2024-02-26T09:49:08;6.22;;;2.88;;
22282;SDS011;11310;51.528;21.204;2024-02-26T09:51:38;5.45;;;2.97;;
22282;SDS011;11310;51.528;21.204;2024-02-26T09:54:07;56.80;;;11.27;;
22282;SDS011;11310;51.528;21.204;2024-02-26T09:56:40;141.15;;;17.13;;
22282;SDS011;11310;51.528;21.204;2024-02-26T09:59:25;32.92;;;8.60;;
22282;SDS011;11310;51.528;21.204;2024-02-26T10:01:56;19.92;;;9.50;;
22282;SDS011;11310;51.528;21.204;2024-02-26T10:04:27;40.75;;;9.95;;
22282;SDS011;11310;51.528;21.204;2024-02-26T10:06:56;72.15;;;13.15;;
22282;SDS011;11310;51.528;21.204;2024-02-26T10:09:26;44.13;;;9.50;;
22282;SDS011;11310;51.528;21.204;2024-02-26T10:11:55;4.68;;;2.42;;
22282;SDS011;11310;51.528;21.204;2024-02-26T10:14:25;5.78;;;2.55;;
22282;SDS011;11310;51.528;21.204;2024-02-26T10:16:53;6.18;;;2.75;;
22282;SDS011;11310;51.528;21.204;2024-02-26T10:19:24;6.85;;;2.75;;
22282;SDS011;11310;51.528;21.204;2024-02-26T10:21:59;5.07;;;2.60;;
22282;SDS011;11310;51.528;21.204;2024-02-26T10:24:31;7.20;;;2.53;;
22282;SDS011;11310;51.528;21.204;2024-02-26T10:27:03;5.60;;;2.95;;
22282;SDS011;11310;51.528;21.204;2024-02-26T10:29:32;5.68;;;2.90;;
22282;SDS011;11310;51.528;21.204;2024-02-26T10:32:03;6.70;;;3.42;;
22282;SDS011;11310;51.528;21.204;2024-02-26T10:34:31;3.58;;;2.05;;
22282;SDS011;11310;51.528;21.204;2024-02-26T10:37:01;6.72;;;2.70;;
22282;SDS011;11310;51.528;21.204;2024-02-26T10:39:33;5.43;;;2.42;;
22282;SDS011;11310;51.528;21.204;2024-02-26T10:42:05;5.55;;;2.72;;
22282;SDS011;11310;51.528;21.204;2024-02-26T10:44:42;6.32;;;2.30;;
22282;SDS011;11310;51.528;21.204;2024-02-26T10:47:13;80.97;;;10.75;;
22282;SDS011;11310;51.528;21.204;2024-02-26T10:49:45;12.90;;;6.70;;
22282;SDS011;11310;51.528;21.204;2024-02-26T10:52:16;6.82;;;3.65;;
22282;SDS011;11310;51.528;21.204;2024-02-26T10:54:47;5.82;;;2.45;;
22282;SDS011;11310;51.528;21.204;2024-02-26T10:57:22;5.72;;;2.42;;
22282;SDS011;11310;51.528;21.204;2024-02-26T10:59:52;3.58;;;2.33;;
22282;SDS011;11310;51.528;21.204;2024-02-26T11:02:23;5.07;;;2.42;;
22282;SDS011;11310;51.528;21.204;2024-02-26T11:04:52;4.60;;;2.22;;
22282;SDS011;11310;51.528;21.204;2024-02-26T11:07:21;5.13;;;2.67;;
22282;SDS011;11310;51.528;21.204;2024-02-26T11:09:51;6.63;;;2.35;;
22282;SDS011;11310;51.528;21.204;2024-02-26T11:12:20;5.35;;;2.33;;
22282;SDS011;11310;51.528;21.204;2024-02-26T11:14:50;5.47;;;2.70;;
22282;SDS011;11310;51.528;21.204;2024-02-26T11:17:23;4.45;;;2.58;;
22282;SDS011;11310;51.528;21.204;2024-02-26T11:19:55;5.47;;;2.65;;
22282;SDS011;11310;51.528;21.204;2024-02-26T11:22:27;5.60;;;3.40;;
22282;SDS011;11310;51.528;21.204;2024-02-26T11:24:56;6.45;;;3.30;;
22282;SDS011;11310;51.528;21.204;2024-02-26T11:27:29;7.40;;;3.45;;
22282;SDS011;11310;51.528;21.204;2024-02-26T11:30:01;5.60;;;3.50;;
22282;SDS011;11310;51.528;21.204;2024-02-26T11:32:34;5.78;;;3.13;;
22282;SDS011;11310;51.528;21.204;2024-02-26T11:35:04;5.07;;;2.83;;
22282;SDS011;11310;51.528;21.204;2024-02-26T11:37:34;4.93;;;2.60;;
22282;SDS011;11310;51.528;21.204;2024-02-26T11:40:10;5.53;;;2.85;;
22282;SDS011;11310;51.528;21.204;2024-02-26T11:42:43;4.15;;;2.72;;
22282;SDS011;11310;51.528;21.204;2024-02-26T11:48:24;4.00;;;2.50;;
22282;SDS011;11310;51.528;21.204;2024-02-26T11:50:53;5.68;;;2.97;;
22282;SDS011;11310;51.528;21.204;2024-02-26T11:53:24;6.70;;;3.05;;
22282;SDS011;11310;51.528;21.204;2024-02-26T11:56:12;6.32;;;3.22;;
22282;SDS011;11310;51.528;21.204;2024-02-26T11:58:41;4.88;;;3.63;;
22282;SDS011;11310;51.528;21.204;2024-02-26T12:04:16;5.85;;;3.38;;
22282;SDS011;11310;51.528;21.204;2024-02-26T12:06:47;7.45;;;4.47;;
22282;SDS011;11310;51.528;21.204;2024-02-26T12:09:34;6.47;;;4.05;;
22282;SDS011;11310;51.528;21.204;2024-02-26T12:12:05;7.60;;;4.10;;
22282;SDS011;11310;51.528;21.204;2024-02-26T12:14:37;8.75;;;4.88;;
22282;SDS011;11310;51.528;21.204;2024-02-26T12:17:07;9.70;;;5.73;;
22282;SDS011;11310;51.528;21.204;2024-02-26T12:19:51;12.05;;;6.95;;
22282;SDS011;11310;51.528;21.204;2024-02-26T12:22:21;9.70;;;5.15;;
22282;SDS011;11310;51.528;21.204;2024-02-26T12:24:58;15.13;;;8.60;;
22282;SDS011;11310;51.528;21.204;2024-02-26T12:27:28;7.18;;;3.80;;
22282;SDS011;11310;51.528;21.204;2024-02-26T12:29:57;9.18;;;5.32;;
22282;SDS011;11310;51.528;21.204;2024-02-26T12:32:29;12.15;;;5.65;;
22282;SDS011;11310;51.528;21.204;2024-02-26T12:35:00;19.65;;;11.38;;
22282;SDS011;11310;51.528;21.204;2024-02-26T12:37:29;9.25;;;5.15;;
22282;SDS011;11310;51.528;21.204;2024-02-26T12:40:02;14.18;;;4.80;;
22282;SDS011;11310;51.528;21.204;2024-02-26T12:42:30;7.40;;;3.80;;
22282;SDS011;11310;51.528;21.204;2024-02-26T12:45:07;11.25;;;5.75;;
22282;SDS011;11310;51.528;21.204;2024-02-26T12:47:37;10.40;;;5.70;;
22282;SDS011;11310;51.528;21.204;2024-02-26T12:50:08;11.07;;;5.50;;
22282;SDS011;11310;51.528;21.204;2024-02-26T12:52:38;5.72;;;2.65;;
22282;SDS011;11310;51.528;21.204;2024-02-26T12:55:09;5.70;;;2.63;;
22282;SDS011;11310;51.528;21.204;2024-02-26T12:57:42;5.50;;;2.60;;
22282;SDS011;11310;51.528;21.204;2024-02-26T13:00:13;3.80;;;2.30;;
22282;SDS011;11310;51.528;21.204;2024-02-26T13:02:45;4.93;;;2.90;;
22282;SDS011;11310;51.528;21.204;2024-02-26T13:05:16;6.13;;;2.30;;
22282;SDS011;11310;51.528;21.204;2024-02-26T13:07:47;4.85;;;2.42;;
22282;SDS011;11310;51.528;21.204;2024-02-26T13:10:16;7.68;;;3.10;;
22282;SDS011;11310;51.528;21.204;2024-02-26T13:12:46;7.88;;;2.80;;
22282;SDS011;11310;51.528;21.204;2024-02-26T13:15:17;4.30;;;2.28;;
22282;SDS011;11310;51.528;21.204;2024-02-26T13:17:47;4.63;;;2.22;;
22282;SDS011;11310;51.528;21.204;2024-02-26T13:20:26;3.83;;;2.28;;
22282;SDS011;11310;51.528;21.204;2024-02-26T13:23:04;6.53;;;2.70;;
22282;SDS011;11310;51.528;21.204;2024-02-26T13:25:35;7.45;;;2.75;;
22282;SDS011;11310;51.528;21.204;2024-02-26T13:28:13;7.13;;;2.60;;
22282;SDS011;11310;51.528;21.204;2024-02-26T13:30:49;5.68;;;2.78;;
22282;SDS011;11310;51.528;21.204;2024-02-26T13:33:19;6.63;;;2.88;;
22282;SDS011;11310;51.528;21.204;2024-02-26T13:35:51;6.32;;;2.60;;
22282;SDS011;11310;51.528;21.204;2024-02-26T13:38:21;6.05;;;2.45;;
22282;SDS011;11310;51.528;21.204;2024-02-26T13:40:52;4.80;;;2.40;;
22282;SDS011;11310;51.528;21.204;2024-02-26T13:43:21;7.25;;;2.97;;
22282;SDS011;11310;51.528;21.204;2024-02-26T13:45:50;7.60;;;3.45;;
22282;SDS011;11310;51.528;21.204;2024-02-26T13:48:24;7.80;;;2.92;;
22282;SDS011;11310;51.528;21.204;2024-02-26T13:50:54;8.95;;;3.22;;
22282;SDS011;11310;51.528;21.204;2024-02-26T13:53:23;9.65;;;3.78;;
22282;SDS011;11310;51.528;21.204;2024-02-26T13:55:53;9.15;;;3.30;;
22282;SDS011;11310;51.528;21.204;2024-02-26T13:58:22;7.40;;;3.33;;
22282;SDS011;11310;51.528;21.204;2024-02-26T14:00:51;8.82;;;3.55;;
22282;SDS011;11310;51.528;21.204;2024-02-26T14:03:19;8.32;;;3.80;;
22282;SDS011;11310;51.528;21.204;2024-02-26T14:05:48;7.15;;;3.40;;
22282;SDS011;11310;51.528;21.204;2024-02-26T14:08:19;10.32;;;3.95;;
22282;SDS011;11310;51.528;21.204;2024-02-26T14:10:48;8.98;;;4.50;;
22282;SDS011;11310;51.528;21.204;2024-02-26T14:13:20;10.07;;;4.00;;
22282;SDS011;11310;51.528;21.204;2024-02-26T14:15:49;6.10;;;3.70;;
22282;SDS011;11310;51.528;21.204;2024-02-26T14:18:17;9.52;;;4.05;;
22282;SDS011;11310;51.528;21.204;2024-02-26T14:20:46;8.73;;;4.40;;
22282;SDS011;11310;51.528;21.204;2024-02-26T14:23:20;8.48;;;4.65;;
22282;SDS011;11310;51.528;21.204;2024-02-26T14:25:48;10.63;;;4.50;;
22282;SDS011;11310;51.528;21.204;2024-02-26T14:28:17;9.02;;;4.25;;
22282;SDS011;11310;51.528;21.204;2024-02-26T14:30:58;9.13;;;4.20;;
22282;SDS011;11310;51.528;21.204;2024-02-26T14:33:26;9.80;;;4.30;;
22282;SDS011;11310;51.528;21.204;2024-02-26T14:35:56;9.43;;;4.20;;
22282;SDS011;11310;51.528;21.204;2024-02-26T14:38:27;9.18;;;4.65;;
22282;SDS011;11310;51.528;21.204;2024-02-26T14:40:56;10.48;;;4.78;;
22282;SDS011;11310;51.528;21.204;2024-02-26T14:43:25;9.98;;;4.78;;
22282;SDS011;11310;51.528;21.204;2024-02-26T14:45:53;14.18;;;6.82;;
22282;SDS011;11310;51.528;21.204;2024-02-26T14:48:22;12.93;;;7.15;;
22282;SDS011;11310;51.528;21.204;2024-02-26T14:50:51;11.38;;;6.30;;
22282;SDS011;11310;51.528;21.204;2024-02-26T14:53:19;13.52;;;5.72;;